createdAt,value
2022-11-17T12:29:57.273Z,96802.88
2022-11-17T12:32:48.840Z,96817.03
2022-11-17T12:35:28.991Z,96811.75
2022-11-17T12:38:30.976Z,96817.72
2022-11-17T12:40:57.571Z,96818.97
2022-11-17T12:43:26.252Z,96831.84
2022-11-17T12:45:52.897Z,96824.25
2022-11-17T12:48:39.703Z,96823.41
2022-11-17T12:51:21.724Z,96828.81
2022-11-17T12:54:46.762Z,96836.09
2022-11-17T12:57:32.127Z,96832.47
2022-11-17T13:00:29.513Z,96836.72
2022-11-17T13:03:10.778Z,96846.31
2022-11-17T13:05:38.195Z,96850.31
2022-11-17T13:08:14.765Z,96847.31
2022-11-17T13:10:41.861Z,96862.69
2022-11-17T13:13:13.618Z,96863.50
2022-11-17T13:15:42.363Z,96871.09
2022-11-17T13:18:33.024Z,96858.09
2022-11-17T13:21:00.570Z,96865.19
2022-11-17T13:23:32.345Z,96872.16
2022-11-17T13:26:37.580Z,96871.88
2022-11-17T13:29:05.318Z,96878.44
2022-11-17T13:31:32.822Z,96871.41
2022-11-17T13:34:07.312Z,96867.28
2022-11-17T13:36:34.372Z,96862.66
2022-11-17T13:39:02.351Z,96870.88
2022-11-17T13:41:38.701Z,96869.25
2022-11-17T13:44:08.683Z,96874.66
2022-11-17T13:46:36.225Z,96871.72
2022-11-17T13:49:38.250Z,96873.84
2022-11-17T13:52:05.755Z,96869.69
2022-11-17T13:54:33.050Z,96875.47
2022-11-17T13:57:07.505Z,96871.94
2022-11-17T13:59:36.187Z,96864.34
2022-11-17T14:02:20.919Z,96874.09
2022-11-17T14:05:26.580Z,96879.00
2022-11-17T14:07:56.856Z,96871.75
2022-11-17T14:10:28.091Z,96879.53
2022-11-17T14:13:19.663Z,96889.94
2022-11-17T14:15:53.810Z,96885.28
2022-11-17T14:18:23.579Z,96891.91
2022-11-17T14:21:04.583Z,96890.78
2022-11-17T14:23:31.170Z,96887.25
2022-11-17T14:25:57.763Z,96895.84
2022-11-17T14:28:24.496Z,96896.31
2022-11-17T14:30:52.867Z,96900.44
2022-11-17T14:33:19.739Z,96901.56
2022-11-17T14:35:50.541Z,96894.47
2022-11-17T14:38:19.575Z,96910.84
2022-11-17T14:40:46.604Z,96899.88
2022-11-17T14:43:13.222Z,96896.09
2022-11-17T14:45:39.809Z,96893.16
2022-11-17T14:48:06.623Z,96891.81
2022-11-17T14:50:33.268Z,96897.09
2022-11-17T14:53:00.197Z,96898.75
2022-11-17T14:55:27.143Z,96904.06
2022-11-17T14:57:54.111Z,96905.03
2022-11-17T15:00:21.542Z,96908.69
2022-11-17T15:02:48.664Z,96917.44
2022-11-17T15:05:15.330Z,96914.34
2022-11-17T15:07:42.493Z,96928.53
2022-11-17T15:10:09.706Z,96911.38
2022-11-17T15:12:36.682Z,96918.66
2022-11-17T15:15:04.508Z,96915.84
2022-11-17T15:17:31.200Z,96911.56
2022-11-17T15:19:58.000Z,96918.38
